sensor_id;sensor_type;location;lat;lon;timestamp;temperature;humidity
36586;DHT22;22591;48.314;11.562;2022-12-10T00:02:10;1.70;99.90
36586;DHT22;22591;48.314;11.562;2022-12-10T00:04:35;1.70;99.90
36586;DHT22;22591;48.314;11.562;2022-12-10T00:07:01;1.60;99.90
36586;DHT22;22591;48.314;11.562;2022-12-10T00:09:26;1.50;99.90
36586;DHT22;22591;48.314;11.562;2022-12-10T00:11:52;1.40;99.90
36586;DHT22;22591;48.314;11.562;2022-12-10T00:14:18;1.50;99.90
36586;DHT22;22591;48.314;11.562;2022-12-10T00:16:44;1.50;99.90
36586;DHT22;22591;48.314;11.562;2022-12-10T00:19:10;1.50;99.90
36586;DHT22;22591;48.314;11.562;2022-12-10T00:21:36;1.60;99.90
36586;DHT22;22591;48.314;11.562;2022-12-10T00:24:03;1.70;99.90
36586;DHT22;22591;48.314;11.562;2022-12-10T00:26:34;1.70;99.90
36586;DHT22;22591;48.314;11.562;2022-12-10T00:29:02;1.70;99.90
36586;DHT22;22591;48.314;11.562;2022-12-10T00:31:31;1.60;99.90
36586;DHT22;22591;48.314;11.562;2022-12-10T00:33:59;1.70;99.90
36586;DHT22;22591;48.314;11.562;2022-12-10T00:36:28;1.70;99.90
36586;DHT22;22591;48.314;11.562;2022-12-10T00:38:54;1.70;99.90
36586;DHT22;22591;48.314;11.562;2022-12-10T00:41:20;1.70;99.90
36586;DHT22;22591;48.314;11.562;2022-12-10T00:43:46;1.70;99.90
36586;DHT22;22591;48.314;11.562;2022-12-10T00:46:13;1.70;99.90
36586;DHT22;22591;48.314;11.562;2022-12-10T00:48:40;1.60;99.90
36586;DHT22;22591;48.314;11.562;2022-12-10T00:51:07;1.60;99.90
36586;DHT22;22591;48.314;11.562;2022-12-10T00:53:34;1.60;99.90
36586;DHT22;22591;48.314;11.562;2022-12-10T00:56:00;1.60;99.90
36586;DHT22;22591;48.314;11.562;2022-12-10T00:58:28;1.50;99.90
36586;DHT22;22591;48.314;11.562;2022-12-10T01:00:54;1.50;99.90
36586;DHT22;22591;48.314;11.562;2022-12-10T01:03:30;1.40;99.90
36586;DHT22;22591;48.314;11.562;2022-12-10T01:05:56;1.40;99.90
36586;DHT22;22591;48.314;11.562;2022-12-10T01:08:21;1.50;99.90
36586;DHT22;22591;48.314;11.562;2022-12-10T01:10:52;1.50;99.90
36586;DHT22;22591;48.314;11.562;2022-12-10T01:13:18;1.50;99.90
36586;DHT22;22591;48.314;11.562;2022-12-10T01:15:43;1.40;99.90
36586;DHT22;22591;48.314;11.562;2022-12-10T01:18:09;1.50;99.90
36586;DHT22;22591;48.314;11.562;2022-12-10T01:20:35;1.40;99.90
36586;DHT22;22591;48.314;11.562;2022-12-10T01:23:02;1.40;99.90
36586;DHT22;22591;48.314;11.562;2022-12-10T01:25:27;1.50;99.90
36586;DHT22;22591;48.314;11.562;2022-12-10T01:27:53;1.50;99.90
36586;DHT22;22591;48.314;11.562;2022-12-10T01:30:18;1.50;99.90
36586;DHT22;22591;48.314;11.562;2022-12-10T01:32:44;1.50;99.90
36586;DHT22;22591;48.314;11.562;2022-12-10T01:35:09;1.40;99.90
36586;DHT22;22591;48.314;11.562;2022-12-10T01:37:35;1.40;99.90
36586;DHT22;22591;48.314;11.562;2022-12-10T01:40:00;1.40;99.90
36586;DHT22;22591;48.314;11.562;2022-12-10T01:42:26;1.50;99.90
36586;DHT22;22591;48.314;11.562;2022-12-10T01:45:00;1.50;99.90
36586;DHT22;22591;48.314;11.562;2022-12-10T01:47:26;1.60;99.90
36586;DHT22;22591;48.314;11.562;2022-12-10T01:49:52;1.50;99.90
36586;DHT22;22591;48.314;11.562;2022-12-10T01:52:18;1.50;99.90
36586;DHT22;22591;48.314;11.562;2022-12-10T01:54:45;1.50;99.90
36586;DHT22;22591;48.314;11.562;2022-12-10T01:57:24;1.50;99.90
36586;DHT22;22591;48.314;11.562;2022-12-10T01:59:53;1.50;99.90
36586;DHT22;22591;48.314;11.562;2022-12-10T02:02:28;1.40;99.90
36586;DHT22;22591;48.314;11.562;2022-12-10T02:05:07;1.40;99.90
36586;DHT22;22591;48.314;11.562;2022-12-10T02:13:27;1.40;99.90
36586;DHT22;22591;48.314;11.562;2022-12-10T02:16:18;1.40;99.90
36586;DHT22;22591;48.314;11.562;2022-12-10T02:18:58;1.40;99.90
36586;DHT22;22591;48.314;11.562;2022-12-10T02:21:33;1.40;99.90
36586;DHT22;22591;48.314;11.562;2022-12-10T02:24:05;1.40;99.90
36586;DHT22;22591;48.314;11.562;2022-12-10T02:26:44;1.40;99.90
36586;DHT22;22591;48.314;11.562;2022-12-10T02:31:38;1.30;99.90
36586;DHT22;22591;48.314;11.562;2022-12-10T02:34:05;1.30;99.90
36586;DHT22;22591;48.314;11.562;2022-12-10T02:36:36;1.30;99.90
36586;DHT22;22591;48.314;11.562;2022-12-10T02:39:04;1.40;99.90
36586;DHT22;22591;48.314;11.562;2022-12-10T02:41:34;1.40;99.90
36586;DHT22;22591;48.314;11.562;2022-12-10T02:44:03;1.50;99.90
36586;DHT22;22591;48.314;11.562;2022-12-10T02:46:32;1.50;99.90
36586;DHT22;22591;48.314;11.562;2022-12-10T02:49:01;1.40;99.90
36586;DHT22;22591;48.314;11.562;2022-12-10T02:51:27;1.40;99.90
36586;DHT22;22591;48.314;11.562;2022-12-10T02:54:03;1.40;99.90
36586;DHT22;22591;48.314;11.562;2022-12-10T02:56:44;1.30;99.90
36586;DHT22;22591;48.314;11.562;2022-12-10T02:59:38;1.30;99.90
36586;DHT22;22591;48.314;11.562;2022-12-10T03:02:08;1.30;99.90
36586;DHT22;22591;48.314;11.562;2022-12-10T03:05:02;1.30;99.90
36586;DHT22;22591;48.314;11.562;2022-12-10T03:07:35;1.30;99.90
36586;DHT22;22591;48.314;11.562;2022-12-10T03:12:47;1.30;99.90
36586;DHT22;22591;48.314;11.562;2022-12-10T03:15:14;1.30;99.90
36586;DHT22;22591;48.314;11.562;2022-12-10T03:17:41;1.20;99.90
36586;DHT22;22591;48.314;11.562;2022-12-10T03:20:10;1.10;99.90
36586;DHT22;22591;48.314;11.562;2022-12-10T03:22:38;1.10;99.90
36586;DHT22;22591;48.314;11.562;2022-12-10T03:25:07;1.10;99.90
36586;DHT22;22591;48.314;11.562;2022-12-10T03:27:34;1.10;99.90
36586;DHT22;22591;48.314;11.562;2022-12-10T03:30:02;1.10;99.90
36586;DHT22;22591;48.314;11.562;2022-12-10T03:32:28;1.10;99.90
36586;DHT22;22591;48.314;11.562;2022-12-10T03:34:56;1.10;99.90
36586;DHT22;22591;48.314;11.562;2022-12-10T03:37:24;1.00;99.90
36586;DHT22;22591;48.314;11.562;2022-12-10T03:39:51;1.00;99.90
36586;DHT22;22591;48.314;11.562;2022-12-10T03:42:17;1.00;99.90
36586;DHT22;22591;48.314;11.562;2022-12-10T03:44:42;1.00;99.90
36586;DHT22;22591;48.314;11.562;2022-12-10T03:47:11;1.00;99.90
36586;DHT22;22591;48.314;11.562;2022-12-10T03:49:38;1.10;99.90
36586;DHT22;22591;48.314;11.562;2022-12-10T03:52:03;1.10;99.90
36586;DHT22;22591;48.314;11.562;2022-12-10T03:54:29;1.10;99.90
36586;DHT22;22591;48.314;11.562;2022-12-10T03:56:55;1.10;99.90
36586;DHT22;22591;48.314;11.562;2022-12-10T03:59:20;1.00;99.90
36586;DHT22;22591;48.314;11.562;2022-12-10T04:01:46;1.00;99.90
36586;DHT22;22591;48.314;11.562;2022-12-10T04:04:11;0.90;99.90
36586;DHT22;22591;48.314;11.562;2022-12-10T04:06:39;1.00;99.90
36586;DHT22;22591;48.314;11.562;2022-12-10T04:09:05;1.00;99.90
36586;DHT22;22591;48.314;11.562;2022-12-10T04:11:31;1.00;99.90
36586;DHT22;22591;48.314;11.562;2022-12-10T04:13:56;0.90;99.90
36586;DHT22;22591;48.314;11.562;2022-12-10T04:16:41;0.90;99.90
36586;DHT22;22591;48.314;11.562;2022-12-10T04:19:09;1.00;99.90
36586;DHT22;22591;48.314;11.562;2022-12-10T04:21:37;1.00;99.90
36586;DHT22;22591;48.314;11.562;2022-12-10T04:24:24;1.00;99.90
36586;DHT22;22591;48.314;11.562;2022-12-10T04:27:16;1.00;99.90
36586;DHT22;22591;48.314;11.562;2022-12-10T04:29:42;1.00;99.90
36586;DHT22;22591;48.314;11.562;2022-12-10T04:32:08;1.00;99.90
36586;DHT22;22591;48.314;11.562;2022-12-10T04:34:34;1.00;99.90
36586;DHT22;22591;48.314;11.562;2022-12-10T04:37:00;1.10;99.90
36586;DHT22;22591;48.314;11.562;2022-12-10T04:39:26;1.10;99.90
36586;DHT22;22591;48.314;11.562;2022-12-10T04:41:52;1.10;99.90
36586;DHT22;22591;48.314;11.562;2022-12-10T04:44:18;1.20;99.90
36586;DHT22;22591;48.314;11.562;2022-12-10T04:46:44;1.20;99.90
36586;DHT22;22591;48.314;11.562;2022-12-10T04:49:10;1.30;99.90
36586;DHT22;22591;48.314;11.562;2022-12-10T04:51:36;1.20;99.90
36586;DHT22;22591;48.314;11.562;2022-12-10T04:54:02;1.20;99.90
36586;DHT22;22591;48.314;11.562;2022-12-10T04:56:28;1.20;99.90
36586;DHT22;22591;48.314;11.562;2022-12-10T04:58:57;1.20;99.90
36586;DHT22;22591;48.314;11.562;2022-12-10T05:01:23;1.10;99.90
36586;DHT22;22591;48.314;11.562;2022-12-10T05:03:49;1.10;99.90
36586;DHT22;22591;48.314;11.562;2022-12-10T05:06:16;1.20;99.90
36586;DHT22;22591;48.314;11.562;2022-12-10T05:08:42;1.20;99.90
36586;DHT22;22591;48.314;11.562;2022-12-10T05:11:14;1.20;99.90
36586;DHT22;22591;48.314;11.562;2022-12-10T05:13:40;1.20;99.90
36586;DHT22;22591;48.314;11.562;2022-12-10T05:16:08;1.20;99.90
36586;DHT22;22591;48.314;11.562;2022-12-10T05:18:35;1.20;99.90
36586;DHT22;22591;48.314;11.562;2022-12-10T05:21:02;1.30;99.90
36586;DHT22;22591;48.314;11.562;2022-12-10T05:23:28;1.30;99.90
36586;DHT22;22591;48.314;11.562;2022-12-10T05:26:06;1.40;99.90
36586;DHT22;22591;48.314;11.562;2022-12-10T05:28:40;1.40;99.90
36586;DHT22;22591;48.314;11.562;2022-12-10T05:31:10;1.40;99.90
36586;DHT22;22591;48.314;11.562;2022-12-10T05:33:36;1.50;99.90
36586;DHT22;22591;48.314;11.562;2022-12-10T05:36:03;1.50;99.90
36586;DHT22;22591;48.314;11.562;2022-12-10T05:38:31;1.50;99.90
36586;DHT22;22591;48.314;11.562;2022-12-10T05:41:04;1.50;99.90
36586;DHT22;22591;48.314;11.562;2022-12-10T05:43:30;1.50;99.90
36586;DHT22;22591;48.314;11.562;2022-12-10T05:46:00;1.50;99.90
36586;DHT22;22591;48.314;11.562;2022-12-10T05:48:26;1.50;99.90
36586;DHT22;22591;48.314;11.562;2022-12-10T05:50:52;1.50;99.90
36586;DHT22;22591;48.314;11.562;2022-12-10T05:53:17;1.50;99.90
36586;DHT22;22591;48.314;11.562;2022-12-10T05:55:43;1.50;99.90
36586;DHT22;22591;48.314;11.562;2022-12-10T05:58:09;1.60;99.90
36586;DHT22;22591;48.314;11.562;2022-12-10T06:00:35;1.60;99.90
36586;DHT22;22591;48.314;11.562;2022-12-10T06:03:00;1.60;99.90
36586;DHT22;22591;48.314;11.562;2022-12-10T06:05:26;1.60;99.90
36586;DHT22;22591;48.314;11.562;2022-12-10T06:07:51;1.50;99.90
36586;DHT22;22591;48.314;11.562;2022-12-10T06:10:17;1.50;99.90
36586;DHT22;22591;48.314;11.562;2022-12-10T06:12:42;1.50;99.90
36586;DHT22;22591;48.314;11.562;2022-12-10T06:15:08;1.50;99.90
36586;DHT22;22591;48.314;11.562;2022-12-10T06:17:34;1.50;99.90
36586;DHT22;22591;48.314;11.562;2022-12-10T06:20:01;1.50;99.90
36586;DHT22;22591;48.314;11.562;2022-12-10T06:22:27;1.50;99.90
36586;DHT22;22591;48.314;11.562;2022-12-10T06:24:54;1.60;99.90
36586;DHT22;22591;48.314;11.562;2022-12-10T06:27:20;1.50;99.90
36586;DHT22;22591;48.314;11.562;2022-12-10T06:29:45;1.40;99.90
36586;DHT22;22591;48.314;11.562;2022-12-10T06:32:11;1.40;99.90
36586;DHT22;22591;48.314;11.562;2022-12-10T06:34:36;1.40;99.90
36586;DHT22;22591;48.314;11.562;2022-12-10T06:37:02;1.40;99.90
36586;DHT22;22591;48.314;11.562;2022-12-10T06:39:27;1.40;99.90
36586;DHT22;22591;48.314;11.562;2022-12-10T06:41:53;1.50;99.90
36586;DHT22;22591;48.314;11.562;2022-12-10T06:44:18;1.60;99.90
36586;DHT22;22591;48.314;11.562;2022-12-10T06:46:44;1.50;99.90
36586;DHT22;22591;48.314;11.562;2022-12-10T06:49:10;1.50;99.90
36586;DHT22;22591;48.314;11.562;2022-12-10T06:51:35;1.50;99.90
36586;DHT22;22591;48.314;11.562;2022-12-10T06:54:01;1.50;99.90
36586;DHT22;22591;48.314;11.562;2022-12-10T06:56:26;1.50;99.90
36586;DHT22;22591;48.314;11.562;2022-12-10T06:58:52;1.60;99.90
36586;DHT22;22591;48.314;11.562;2022-12-10T07:01:20;1.60;99.90
36586;DHT22;22591;48.314;11.562;2022-12-10T07:03:55;1.60;99.90
36586;DHT22;22591;48.314;11.562;2022-12-10T07:06:21;1.60;99.90
36586;DHT22;22591;48.314;11.562;2022-12-10T07:08:47;1.60;99.90
36586;DHT22;22591;48.314;11.562;2022-12-10T07:11:15;1.60;99.90
36586;DHT22;22591;48.314;11.562;2022-12-10T07:13:41;1.50;99.90
36586;DHT22;22591;48.314;11.562;2022-12-10T07:16:21;1.50;99.90
36586;DHT22;22591;48.314;11.562;2022-12-10T07:18:48;1.40;99.90
36586;DHT22;22591;48.314;11.562;2022-12-10T07:21:21;1.30;99.90
36586;DHT22;22591;48.314;11.562;2022-12-10T07:23:47;1.20;99.90
36586;DHT22;22591;48.314;11.562;2022-12-10T07:26:13;1.20;99.90
36586;DHT22;22591;48.314;11.562;2022-12-10T07:28:39;1.20;99.90
36586;DHT22;22591;48.314;11.562;2022-12-10T07:31:06;1.30;99.90
36586;DHT22;22591;48.314;11.562;2022-12-10T07:33:32;1.30;99.90
36586;DHT22;22591;48.314;11.562;2022-12-10T07:35:58;1.40;99.90
36586;DHT22;22591;48.314;11.562;2022-12-10T07:38:24;1.50;99.90
36586;DHT22;22591;48.314;11.562;2022-12-10T07:40:50;1.40;99.90
36586;DHT22;22591;48.314;11.562;2022-12-10T07:43:16;1.30;99.90
36586;DHT22;22591;48.314;11.562;2022-12-10T07:45:41;1.40;99.90
36586;DHT22;22591;48.314;11.562;2022-12-10T07:48:07;1.50;99.90
36586;DHT22;22591;48.314;11.562;2022-12-10T07:50:33;1.40;99.90
36586;DHT22;22591;48.314;11.562;2022-12-10T07:52:59;1.40;99.90
36586;DHT22;22591;48.314;11.562;2022-12-10T07:55:25;1.50;99.90
36586;DHT22;22591;48.314;11.562;2022-12-10T07:57:50;1.60;99.90
36586;DHT22;22591;48.314;11.562;2022-12-10T08:00:16;1.60;99.90
36586;DHT22;22591;48.314;11.562;2022-12-10T08:02:42;1.60;99.90
36586;DHT22;22591;48.314;11.562;2022-12-10T08:05:08;1.50;99.90
36586;DHT22;22591;48.314;11.562;2022-12-10T08:07:33;1.50;99.90
36586;DHT22;22591;48.314;11.562;2022-12-10T08:09:59;1.40;99.90
36586;DHT22;22591;48.314;11.562;2022-12-10T08:12:24;1.30;99.90
36586;DHT22;22591;48.314;11.562;2022-12-10T08:14:50;1.40;99.90
36586;DHT22;22591;48.314;11.562;2022-12-10T08:17:15;1.50;99.90
36586;DHT22;22591;48.314;11.562;2022-12-10T08:19:41;1.60;99.90
36586;DHT22;22591;48.314;11.562;2022-12-10T08:22:07;1.60;99.90
36586;DHT22;22591;48.314;11.562;2022-12-10T08:24:32;1.60;99.90
36586;DHT22;22591;48.314;11.562;2022-12-10T08:26:59;1.70;99.90
36586;DHT22;22591;48.314;11.562;2022-12-10T08:29:24;1.70;99.90
36586;DHT22;22591;48.314;11.562;2022-12-10T08:31:50;1.70;99.90
36586;DHT22;22591;48.314;11.562;2022-12-10T08:34:17;1.70;99.90
36586;DHT22;22591;48.314;11.562;2022-12-10T08:36:44;1.70;99.90
36586;DHT22;22591;48.314;11.562;2022-12-10T08:39:10;1.70;99.90
36586;DHT22;22591;48.314;11.562;2022-12-10T08:41:40;1.80;99.90
36586;DHT22;22591;48.314;11.562;2022-12-10T08:44:06;1.90;99.90
36586;DHT22;22591;48.314;11.562;2022-12-10T08:46:31;1.90;99.90
36586;DHT22;22591;48.314;11.562;2022-12-10T08:48:57;1.90;99.90
36586;DHT22;22591;48.314;11.562;2022-12-10T08:51:23;2.00;99.90
36586;DHT22;22591;48.314;11.562;2022-12-10T08:53:49;1.90;99.90
36586;DHT22;22591;48.314;11.562;2022-12-10T08:56:14;1.90;99.90
36586;DHT22;22591;48.314;11.562;2022-12-10T08:58:40;2.00;99.90
36586;DHT22;22591;48.314;11.562;2022-12-10T09:01:11;2.10;99.90
36586;DHT22;22591;48.314;11.562;2022-12-10T09:03:37;2.30;99.90
36586;DHT22;22591;48.314;11.562;2022-12-10T09:06:08;2.40;99.90
36586;DHT22;22591;48.314;11.562;2022-12-10T09:08:34;2.40;99.90
36586;DHT22;22591;48.314;11.562;2022-12-10T09:11:07;2.40;99.90
36586;DHT22;22591;48.314;11.562;2022-12-10T09:13:33;2.40;99.90
36586;DHT22;22591;48.314;11.562;2022-12-10T09:15:59;2.40;99.90
36586;DHT22;22591;48.314;11.562;2022-12-10T09:18:24;2.60;99.90
36586;DHT22;22591;48.314;11.562;2022-12-10T09:20:50;2.60;99.90
36586;DHT22;22591;48.314;11.562;2022-12-10T09:23:16;2.60;99.90
36586;DHT22;22591;48.314;11.562;2022-12-10T09:25:41;2.60;99.90
36586;DHT22;22591;48.314;11.562;2022-12-10T09:28:07;2.60;99.90
36586;DHT22;22591;48.314;11.562;2022-12-10T09:30:32;2.40;99.90
36586;DHT22;22591;48.314;11.562;2022-12-10T09:32:58;2.30;99.90
36586;DHT22;22591;48.314;11.562;2022-12-10T09:35:23;2.20;99.90
36586;DHT22;22591;48.314;11.562;2022-12-10T09:37:49;2.20;99.90
36586;DHT22;22591;48.314;11.562;2022-12-10T09:40:17;2.10;99.90
36586;DHT22;22591;48.314;11.562;2022-12-10T09:42:52;2.00;99.90
36586;DHT22;22591;48.314;11.562;2022-12-10T09:45:49;2.00;99.90
36586;DHT22;22591;48.314;11.562;2022-12-10T09:48:28;2.00;99.90
36586;DHT22;22591;48.314;11.562;2022-12-10T09:53:32;2.00;99.90
36586;DHT22;22591;48.314;11.562;2022-12-10T09:55:59;1.90;99.90
36586;DHT22;22591;48.314;11.562;2022-12-10T09:58:26;1.80;99.90
36586;DHT22;22591;48.314;11.562;2022-12-10T10:01:04;1.80;99.90
36586;DHT22;22591;48.314;11.562;2022-12-10T10:03:35;1.80;99.90
36586;DHT22;22591;48.314;11.562;2022-12-10T10:06:03;1.80;99.90
36586;DHT22;22591;48.314;11.562;2022-12-10T10:08:34;1.70;99.90
36586;DHT22;22591;48.314;11.562;2022-12-10T10:11:02;1.70;99.90
36586;DHT22;22591;48.314;11.562;2022-12-10T10:13:38;1.70;99.90
36586;DHT22;22591;48.314;11.562;2022-12-10T10:19:17;1.70;99.90
36586;DHT22;22591;48.314;11.562;2022-12-10T10:21:48;1.70;99.90
36586;DHT22;22591;48.314;11.562;2022-12-10T10:24:26;1.70;99.90
36586;DHT22;22591;48.314;11.562;2022-12-10T10:26:57;1.90;99.90
36586;DHT22;22591;48.314;11.562;2022-12-10T10:29:23;2.00;99.90
36586;DHT22;22591;48.314;11.562;2022-12-10T10:32:14;2.00;99.90
36586;DHT22;22591;48.314;11.562;2022-12-10T10:34:42;2.00;99.90
36586;DHT22;22591;48.314;11.562;2022-12-10T10:40:27;2.10;99.90
36586;DHT22;22591;48.314;11.562;2022-12-10T10:42:55;2.10;99.90
36586;DHT22;22591;48.314;11.562;2022-12-10T10:45:34;2.20;99.90
36586;DHT22;22591;48.314;11.562;2022-12-10T10:48:12;2.20;99.90
36586;DHT22;22591;48.314;11.562;2022-12-10T10:50:53;2.10;99.90
36586;DHT22;22591;48.314;11.562;2022-12-10T10:53:40;2.10;99.90
36586;DHT22;22591;48.314;11.562;2022-12-10T10:56:29;2.20;99.90
36586;DHT22;22591;48.314;11.562;2022-12-10T11:01:56;2.30;99.90
36586;DHT22;22591;48.314;11.562;2022-12-10T11:04:55;2.30;99.90
36586;DHT22;22591;48.314;11.562;2022-12-10T11:07:34;2.40;99.90
36586;DHT22;22591;48.314;11.562;2022-12-10T11:10:00;2.40;99.90
36586;DHT22;22591;48.314;11.562;2022-12-10T11:12:38;2.50;99.90
36586;DHT22;22591;48.314;11.562;2022-12-10T11:15:29;2.40;99.90
36586;DHT22;22591;48.314;11.562;2022-12-10T11:17:56;2.30;99.90
36586;DHT22;22591;48.314;11.562;2022-12-10T11:23:00;2.20;99.90
36586;DHT22;22591;48.314;11.562;2022-12-10T11:25:36;2.20;99.90
36586;DHT22;22591;48.314;11.562;2022-12-10T11:31:17;2.20;99.90
36586;DHT22;22591;48.314;11.562;2022-12-10T11:36:50;2.50;99.90
36586;DHT22;22591;48.314;11.562;2022-12-10T11:44:49;2.60;99.90
36586;DHT22;22591;48.314;11.562;2022-12-10T11:55:38;2.80;99.90
36586;DHT22;22591;48.314;11.562;2022-12-10T11:58:36;2.90;99.90
36586;DHT22;22591;48.314;11.562;2022-12-10T12:01:18;2.80;99.90
36586;DHT22;22591;48.314;11.562;2022-12-10T12:09:41;2.50;99.90
36586;DHT22;22591;48.314;11.562;2022-12-10T12:12:20;2.50;99.90
36586;DHT22;22591;48.314;11.562;2022-12-10T12:15:03;2.40;99.90
36586;DHT22;22591;48.314;11.562;2022-12-10T12:17:47;2.50;99.90
36586;DHT22;22591;48.314;11.562;2022-12-10T12:20:25;2.50;99.90
36586;DHT22;22591;48.314;11.562;2022-12-10T12:22:58;2.50;99.90
36586;DHT22;22591;48.314;11.562;2022-12-10T12:25:32;2.40;99.90
36586;DHT22;22591;48.314;11.562;2022-12-10T12:30:45;2.40;99.90
36586;DHT22;22591;48.314;11.562;2022-12-10T12:33:19;2.40;99.90
36586;DHT22;22591;48.314;11.562;2022-12-10T12:41:04;2.40;99.90
36586;DHT22;22591;48.314;11.562;2022-12-10T12:46:04;2.20;99.90
36586;DHT22;22591;48.314;11.562;2022-12-10T12:48:41;2.20;99.90
36586;DHT22;22591;48.314;11.562;2022-12-10T12:51:38;2.10;99.90
36586;DHT22;22591;48.314;11.562;2022-12-10T12:54:05;2.20;99.90
36586;DHT22;22591;48.314;11.562;2022-12-10T13:02:17;2.10;99.90
36586;DHT22;22591;48.314;11.562;2022-12-10T13:04:44;2.20;99.90
36586;DHT22;22591;48.314;11.562;2022-12-10T13:12:46;1.80;99.90
36586;DHT22;22591;48.314;11.562;2022-12-10T13:15:21;1.80;99.90
36586;DHT22;22591;48.314;11.562;2022-12-10T13:20:46;1.70;99.90
36586;DHT22;22591;48.314;11.562;2022-12-10T13:28:25;1.70;99.90
36586;DHT22;22591;48.314;11.562;2022-12-10T13:36:12;1.70;99.90
36586;DHT22;22591;48.314;11.562;2022-12-10T13:38:53;1.70;99.90
36586;DHT22;22591;48.314;11.562;2022-12-10T13:41:19;1.70;99.90
36586;DHT22;22591;48.314;11.562;2022-12-10T13:47:26;1.70;99.90
36586;DHT22;22591;48.314;11.562;2022-12-10T13:52:25;1.60;99.90
36586;DHT22;22591;48.314;11.562;2022-12-10T13:55:01;1.60;99.90
36586;DHT22;22591;48.314;11.562;2022-12-10T14:00:17;1.50;99.90
36586;DHT22;22591;48.314;11.562;2022-12-10T14:03:17;1.50;99.90
36586;DHT22;22591;48.314;11.562;2022-12-10T14:06:05;1.50;99.90
36586;DHT22;22591;48.314;11.562;2022-12-10T14:08:37;1.50;99.90
36586;DHT22;22591;48.314;11.562;2022-12-10T14:11:06;1.40;99.90
36586;DHT22;22591;48.314;11.562;2022-12-10T14:13:39;1.40;99.90
36586;DHT22;22591;48.314;11.562;2022-12-10T14:16:10;1.40;99.90
36586;DHT22;22591;48.314;11.562;2022-12-10T14:18:36;1.40;99.90
36586;DHT22;22591;48.314;11.562;2022-12-10T14:21:06;1.30;99.90
36586;DHT22;22591;48.314;11.562;2022-12-10T14:23:33;1.40;99.90
36586;DHT22;22591;48.314;11.562;2022-12-10T14:26:06;1.40;99.90
36586;DHT22;22591;48.314;11.562;2022-12-10T14:28:36;1.40;99.90
36586;DHT22;22591;48.314;11.562;2022-12-10T14:31:02;1.40;99.90
36586;DHT22;22591;48.314;11.562;2022-12-10T14:33:28;1.40;99.90
36586;DHT22;22591;48.314;11.562;2022-12-10T14:35:54;1.40;99.90
36586;DHT22;22591;48.314;11.562;2022-12-10T14:38:29;1.40;99.90
36586;DHT22;22591;48.314;11.562;2022-12-10T14:40:56;1.40;99.90
36586;DHT22;22591;48.314;11.562;2022-12-10T14:43:36;1.30;99.90
36586;DHT22;22591;48.314;11.562;2022-12-10T14:46:03;1.20;99.90
36586;DHT22;22591;48.314;11.562;2022-12-10T14:48:30;1.20;99.90
36586;DHT22;22591;48.314;11.562;2022-12-10T14:51:05;1.20;99.90
36586;DHT22;22591;48.314;11.562;2022-12-10T14:53:35;1.30;99.90
36586;DHT22;22591;48.314;11.562;2022-12-10T14:56:05;1.20;99.90
36586;DHT22;22591;48.314;11.562;2022-12-10T14:58:45;1.30;99.90
36586;DHT22;22591;48.314;11.562;2022-12-10T15:01:28;1.30;99.90
36586;DHT22;22591;48.314;11.562;2022-12-10T15:03:57;1.20;99.90
36586;DHT22;22591;48.314;11.562;2022-12-10T15:06:24;1.30;99.90
36586;DHT22;22591;48.314;11.562;2022-12-10T15:08:54;1.30;99.90
36586;DHT22;22591;48.314;11.562;2022-12-10T15:11:21;1.30;99.90
36586;DHT22;22591;48.314;11.562;2022-12-10T15:13:52;1.30;99.90
36586;DHT22;22591;48.314;11.562;2022-12-10T15:16:51;1.30;99.90
36586;DHT22;22591;48.314;11.562;2022-12-10T15:21:59;1.10;99.90
36586;DHT22;22591;48.314;11.562;2022-12-10T15:24:41;1.10;99.90
36586;DHT22;22591;48.314;11.562;2022-12-10T15:29:44;1.10;99.90
36586;DHT22;22591;48.314;11.562;2022-12-10T15:32:15;1.10;99.90
36586;DHT22;22591;48.314;11.562;2022-12-10T15:34:50;1.00;99.90
36586;DHT22;22591;48.314;11.562;2022-12-10T15:37:38;0.90;99.90
36586;DHT22;22591;48.314;11.562;2022-12-10T15:40:19;0.80;99.90
36586;DHT22;22591;48.314;11.562;2022-12-10T15:42:46;0.80;99.90
36586;DHT22;22591;48.314;11.562;2022-12-10T15:45:24;0.70;99.90
36586;DHT22;22591;48.314;11.562;2022-12-10T15:47:57;0.70;99.90
36586;DHT22;22591;48.314;11.562;2022-12-10T15:50:24;0.70;99.90
36586;DHT22;22591;48.314;11.562;2022-12-10T15:52:52;0.70;99.90
36586;DHT22;22591;48.314;11.562;2022-12-10T15:55:18;0.60;99.90
36586;DHT22;22591;48.314;11.562;2022-12-10T15:57:44;0.60;99.90
36586;DHT22;22591;48.314;11.562;2022-12-10T16:00:17;0.60;99.90
36586;DHT22;22591;48.314;11.562;2022-12-10T16:02:56;0.60;99.90
36586;DHT22;22591;48.314;11.562;2022-12-10T16:05:26;0.50;99.90
36586;DHT22;22591;48.314;11.562;2022-12-10T16:07:54;0.50;99.90
36586;DHT22;22591;48.314;11.562;2022-12-10T16:10:22;0.50;99.90
36586;DHT22;22591;48.314;11.562;2022-12-10T16:12:54;0.50;99.90
36586;DHT22;22591;48.314;11.562;2022-12-10T16:15:23;0.40;99.90
36586;DHT22;22591;48.314;11.562;2022-12-10T16:17:52;0.40;99.90
36586;DHT22;22591;48.314;11.562;2022-12-10T16:22:44;0.20;99.90
36586;DHT22;22591;48.314;11.562;2022-12-10T16:25:10;0.40;99.90
36586;DHT22;22591;48.314;11.562;2022-12-10T16:27:35;0.40;99.90
36586;DHT22;22591;48.314;11.562;2022-12-10T16:32:41;0.30;99.90
36586;DHT22;22591;48.314;11.562;2022-12-10T16:35:07;0.40;99.90
36586;DHT22;22591;48.314;11.562;2022-12-10T16:37:33;0.30;99.90
36586;DHT22;22591;48.314;11.562;2022-12-10T16:39:58;0.20;99.90
36586;DHT22;22591;48.314;11.562;2022-12-10T16:42:24;0.30;99.90
36586;DHT22;22591;48.314;11.562;2022-12-10T16:44:50;0.20;99.90
36586;DHT22;22591;48.314;11.562;2022-12-10T16:47:15;0.30;99.90
36586;DHT22;22591;48.314;11.562;2022-12-10T16:49:41;0.20;99.90
36586;DHT22;22591;48.314;11.562;2022-12-10T16:52:06;0.30;99.90
36586;DHT22;22591;48.314;11.562;2022-12-10T16:54:32;0.30;99.90
36586;DHT22;22591;48.314;11.562;2022-12-10T16:56:57;0.30;99.90
36586;DHT22;22591;48.314;11.562;2022-12-10T16:59:23;0.30;99.90
36586;DHT22;22591;48.314;11.562;2022-12-10T17:01:49;0.30;99.90
36586;DHT22;22591;48.314;11.562;2022-12-10T17:04:14;0.20;99.90
36586;DHT22;22591;48.314;11.562;2022-12-10T17:06:40;0.20;99.90
36586;DHT22;22591;48.314;11.562;2022-12-10T17:09:05;0.10;99.90
36586;DHT22;22591;48.314;11.562;2022-12-10T17:11:38;0.10;99.90
36586;DHT22;22591;48.314;11.562;2022-12-10T17:14:23;0.20;99.90
36586;DHT22;22591;48.314;11.562;2022-12-10T17:16:50;0.20;99.90
36586;DHT22;22591;48.314;11.562;2022-12-10T17:19:16;0.20;99.90
36586;DHT22;22591;48.314;11.562;2022-12-10T17:21:42;0.20;99.90
36586;DHT22;22591;48.314;11.562;2022-12-10T17:24:08;0.30;99.90
36586;DHT22;22591;48.314;11.562;2022-12-10T17:26:37;0.30;99.90
36586;DHT22;22591;48.314;11.562;2022-12-10T17:29:08;0.20;99.90
36586;DHT22;22591;48.314;11.562;2022-12-10T17:31:36;0.10;99.90